sensor_id;sensor_type;location;lat;lon;timestamp;pressure;altitude;pressure_sealevel;temperature;humidity
36748;BME280;22716;51.556;5.080;2023-03-13T00:01:35;99545.53;;;10.01;100.00
36748;BME280;22716;51.556;5.080;2023-03-13T00:04:04;99539.47;;;9.99;100.00
36748;BME280;22716;51.556;5.080;2023-03-13T00:06:36;99540.50;;;9.93;100.00
36748;BME280;22716;51.556;5.080;2023-03-13T00:09:07;99521.38;;;9.91;100.00
36748;BME280;22716;51.556;5.080;2023-03-13T00:11:36;99518.78;;;9.90;100.00
36748;BME280;22716;51.556;5.080;2023-03-13T00:14:08;99515.44;;;9.85;100.00
36748;BME280;22716;51.556;5.080;2023-03-13T00:16:37;99512.03;;;9.83;100.00
36748;BME280;22716;51.556;5.080;2023-03-13T00:19:08;99523.38;;;9.82;100.00
36748;BME280;22716;51.556;5.080;2023-03-13T00:21:37;99506.88;;;9.80;100.00
36748;BME280;22716;51.556;5.080;2023-03-13T00:24:08;99484.41;;;9.73;100.00
36748;BME280;22716;51.556;5.080;2023-03-13T00:26:37;99469.72;;;9.69;100.00
36748;BME280;22716;51.556;5.080;2023-03-13T00:29:09;99473.84;;;9.76;100.00
36748;BME280;22716;51.556;5.080;2023-03-13T00:31:39;99470.47;;;9.72;100.00
36748;BME280;22716;51.556;5.080;2023-03-13T00:34:08;99451.53;;;9.64;100.00
36748;BME280;22716;51.556;5.080;2023-03-13T00:36:37;99443.69;;;9.64;100.00
36748;BME280;22716;51.556;5.080;2023-03-13T00:39:09;99454.84;;;9.71;100.00
36748;BME280;22716;51.556;5.080;2023-03-13T00:41:37;99444.41;;;9.69;100.00
36748;BME280;22716;51.556;5.080;2023-03-13T00:44:09;99445.31;;;9.68;100.00
36748;BME280;22716;51.556;5.080;2023-03-13T00:46:38;99424.41;;;9.68;100.00
36748;BME280;22716;51.556;5.080;2023-03-13T00:49:07;99430.38;;;9.72;100.00
36748;BME280;22716;51.556;5.080;2023-03-13T00:51:35;99419.03;;;9.73;100.00
36748;BME280;22716;51.556;5.080;2023-03-13T00:54:04;99419.91;;;9.72;100.00
36748;BME280;22716;51.556;5.080;2023-03-13T00:56:34;99419.00;;;9.74;100.00
36748;BME280;22716;51.556;5.080;2023-03-13T00:59:03;99410.38;;;9.71;100.00
36748;BME280;22716;51.556;5.080;2023-03-13T01:01:35;99403.22;;;9.76;100.00
36748;BME280;22716;51.556;5.080;2023-03-13T01:04:06;99406.56;;;9.81;100.00
36748;BME280;22716;51.556;5.080;2023-03-13T01:06:38;99396.94;;;9.83;100.00
36748;BME280;22716;51.556;5.080;2023-03-13T01:09:11;99385.50;;;9.85;100.00
36748;BME280;22716;51.556;5.080;2023-03-13T01:11:41;99379.41;;;9.85;100.00
36748;BME280;22716;51.556;5.080;2023-03-13T01:14:12;99367.91;;;9.90;100.00
36748;BME280;22716;51.556;5.080;2023-03-13T01:16:43;99359.16;;;9.91;100.00
36748;BME280;22716;51.556;5.080;2023-03-13T01:19:13;99365.00;;;9.99;100.00
36748;BME280;22716;51.556;5.080;2023-03-13T01:21:43;99365.88;;;10.00;100.00
36748;BME280;22716;51.556;5.080;2023-03-13T01:24:13;99352.69;;;10.03;100.00
36748;BME280;22716;51.556;5.080;2023-03-13T01:26:44;99329.63;;;9.88;100.00
36748;BME280;22716;51.556;5.080;2023-03-13T01:29:13;99349.81;;;10.10;100.00
36748;BME280;22716;51.556;5.080;2023-03-13T01:31:44;99342.66;;;10.17;100.00
36748;BME280;22716;51.556;5.080;2023-03-13T01:34:13;99332.28;;;10.14;100.00
36748;BME280;22716;51.556;5.080;2023-03-13T01:36:42;99299.34;;;10.07;100.00
36748;BME280;22716;51.556;5.080;2023-03-13T01:39:15;99326.66;;;10.26;100.00
36748;BME280;22716;51.556;5.080;2023-03-13T01:41:44;99320.34;;;10.33;100.00
36748;BME280;22716;51.556;5.080;2023-03-13T01:44:20;99314.97;;;10.36;100.00
36748;BME280;22716;51.556;5.080;2023-03-13T01:46:53;99315.78;;;10.38;100.00
36748;BME280;22716;51.556;5.080;2023-03-13T01:49:23;99298.25;;;10.40;100.00
36748;BME280;22716;51.556;5.080;2023-03-13T01:51:56;99296.38;;;10.44;100.00
36748;BME280;22716;51.556;5.080;2023-03-13T01:54:29;99285.75;;;10.48;100.00
36748;BME280;22716;51.556;5.080;2023-03-13T01:57:03;99276.91;;;10.51;100.00
36748;BME280;22716;51.556;5.080;2023-03-13T01:59:37;99272.28;;;10.59;100.00
36748;BME280;22716;51.556;5.080;2023-03-13T02:02:10;99254.81;;;10.59;100.00
36748;BME280;22716;51.556;5.080;2023-03-13T02:04:44;99263.28;;;10.66;100.00
36748;BME280;22716;51.556;5.080;2023-03-13T02:07:16;99259.78;;;10.67;100.00
36748;BME280;22716;51.556;5.080;2023-03-13T02:09:49;99237.97;;;10.66;100.00
36748;BME280;22716;51.556;5.080;2023-03-13T02:12:25;99223.91;;;10.69;100.00
36748;BME280;22716;51.556;5.080;2023-03-13T02:14:57;99229.84;;;10.74;100.00
36748;BME280;22716;51.556;5.080;2023-03-13T02:17:29;99216.75;;;10.74;100.00
36748;BME280;22716;51.556;5.080;2023-03-13T02:20:00;99226.25;;;10.77;100.00
36748;BME280;22716;51.556;5.080;2023-03-13T02:22:32;99207.84;;;10.78;100.00
36748;BME280;22716;51.556;5.080;2023-03-13T02:25:09;99215.78;;;10.77;100.00
36748;BME280;22716;51.556;5.080;2023-03-13T02:27:42;99219.06;;;10.82;100.00
36748;BME280;22716;51.556;5.080;2023-03-13T02:30:12;99215.56;;;10.83;100.00
36748;BME280;22716;51.556;5.080;2023-03-13T02:32:43;99215.38;;;10.87;100.00
36748;BME280;22716;51.556;5.080;2023-03-13T02:35:16;99206.59;;;10.88;100.00
36748;BME280;22716;51.556;5.080;2023-03-13T02:37:49;99201.28;;;10.90;100.00
36748;BME280;22716;51.556;5.080;2023-03-13T02:40:22;99210.97;;;10.88;100.00
36748;BME280;22716;51.556;5.080;2023-03-13T02:42:55;99189.84;;;10.92;100.00
36748;BME280;22716;51.556;5.080;2023-03-13T02:45:26;99200.03;;;11.00;100.00
36748;BME280;22716;51.556;5.080;2023-03-13T02:47:55;99184.31;;;11.00;100.00
36748;BME280;22716;51.556;5.080;2023-03-13T02:50:23;99199.00;;;11.04;100.00
36748;BME280;22716;51.556;5.080;2023-03-13T02:52:54;99195.34;;;11.08;100.00
36748;BME280;22716;51.556;5.080;2023-03-13T02:55:26;99204.81;;;11.12;100.00
36748;BME280;22716;51.556;5.080;2023-03-13T02:57:58;99191.72;;;11.12;100.00
36748;BME280;22716;51.556;5.080;2023-03-13T03:00:27;99201.97;;;11.18;100.00
36748;BME280;22716;51.556;5.080;2023-03-13T03:02:55;99196.72;;;11.18;100.00
36748;BME280;22716;51.556;5.080;2023-03-13T03:05:24;99201.91;;;11.19;100.00
36748;BME280;22716;51.556;5.080;2023-03-13T03:07:53;99195.00;;;11.17;100.00
36748;BME280;22716;51.556;5.080;2023-03-13T03:10:22;99197.44;;;11.21;100.00
36748;BME280;22716;51.556;5.080;2023-03-13T03:12:50;99190.31;;;11.25;100.00
36748;BME280;22716;51.556;5.080;2023-03-13T03:15:22;99198.06;;;11.28;100.00
36748;BME280;22716;51.556;5.080;2023-03-13T03:17:50;99179.59;;;11.31;100.00
36748;BME280;22716;51.556;5.080;2023-03-13T03:20:19;99177.75;;;11.33;100.00
36748;BME280;22716;51.556;5.080;2023-03-13T03:22:48;99177.75;;;11.33;100.00
36748;BME280;22716;51.556;5.080;2023-03-13T03:25:16;99164.47;;;11.38;100.00
36748;BME280;22716;51.556;5.080;2023-03-13T03:27:45;99180.00;;;11.42;100.00
36748;BME280;22716;51.556;5.080;2023-03-13T03:30:14;99178.38;;;11.40;100.00
36748;BME280;22716;51.556;5.080;2023-03-13T03:32:46;99166.22;;;11.37;100.00
36748;BME280;22716;51.556;5.080;2023-03-13T03:35:15;99176.47;;;11.43;100.00
36748;BME280;22716;51.556;5.080;2023-03-13T03:37:43;99177.22;;;11.47;100.00
36748;BME280;22716;51.556;5.080;2023-03-13T03:40:13;99178.06;;;11.47;100.00
36748;BME280;22716;51.556;5.080;2023-03-13T03:42:41;99184.03;;;11.51;100.00
36748;BME280;22716;51.556;5.080;2023-03-13T03:45:10;99178.00;;;11.49;100.00
36748;BME280;22716;51.556;5.080;2023-03-13T03:47:39;99185.75;;;11.52;100.00
36748;BME280;22716;51.556;5.080;2023-03-13T03:50:11;99170.88;;;11.52;100.00
36748;BME280;22716;51.556;5.080;2023-03-13T03:52:40;99170.63;;;11.58;100.00
36748;BME280;22716;51.556;5.080;2023-03-13T03:55:09;99173.13;;;11.61;100.00
36748;BME280;22716;51.556;5.080;2023-03-13T03:57:37;99158.41;;;11.57;100.00
36748;BME280;22716;51.556;5.080;2023-03-13T04:00:08;99178.13;;;11.67;100.00
36748;BME280;22716;51.556;5.080;2023-03-13T04:02:41;99166.53;;;11.73;100.00
36748;BME280;22716;51.556;5.080;2023-03-13T04:05:12;99168.97;;;11.77;100.00
36748;BME280;22716;51.556;5.080;2023-03-13T04:07:41;99163.59;;;11.80;100.00
36748;BME280;22716;51.556;5.080;2023-03-13T04:10:11;99158.28;;;11.82;100.00
36748;BME280;22716;51.556;5.080;2023-03-13T04:12:40;99149.31;;;11.88;100.00
36748;BME280;22716;51.556;5.080;2023-03-13T04:15:10;99147.31;;;11.93;100.00
36748;BME280;22716;51.556;5.080;2023-03-13T04:17:38;99137.78;;;11.92;100.00
36748;BME280;22716;51.556;5.080;2023-03-13T04:20:09;99134.81;;;11.99;100.00
36748;BME280;22716;51.556;5.080;2023-03-13T04:22:41;99136.56;;;11.99;100.00
36748;BME280;22716;51.556;5.080;2023-03-13T04:25:10;99136.53;;;12.00;100.00
36748;BME280;22716;51.556;5.080;2023-03-13T04:27:39;99125.28;;;11.97;100.00
36748;BME280;22716;51.556;5.080;2023-03-13T04:30:10;99116.34;;;12.01;100.00
36748;BME280;22716;51.556;5.080;2023-03-13T04:32:38;99128.44;;;12.05;100.00
36748;BME280;22716;51.556;5.080;2023-03-13T04:35:08;99118.72;;;12.07;100.00
36748;BME280;22716;51.556;5.080;2023-03-13T04:37:37;99130.78;;;12.11;100.00
36748;BME280;22716;51.556;5.080;2023-03-13T04:40:10;99113.28;;;12.11;100.00
36748;BME280;22716;51.556;5.080;2023-03-13T04:42:40;99114.13;;;12.12;100.00
36748;BME280;22716;51.556;5.080;2023-03-13T04:45:11;99121.78;;;12.16;100.00
36748;BME280;22716;51.556;5.080;2023-03-13T04:47:39;99102.50;;;12.17;100.00
36748;BME280;22716;51.556;5.080;2023-03-13T04:50:09;99110.31;;;12.19;100.00
36748;BME280;22716;51.556;5.080;2023-03-13T04:52:38;99073.75;;;12.14;100.00
36748;BME280;22716;51.556;5.080;2023-03-13T04:55:10;99083.59;;;12.29;100.00
36748;BME280;22716;51.556;5.080;2023-03-13T04:57:38;99062.84;;;12.23;100.00
36748;BME280;22716;51.556;5.080;2023-03-13T05:00:09;99077.53;;;12.27;100.00
36748;BME280;22716;51.556;5.080;2023-03-13T05:02:38;99076.25;;;12.36;100.00
36748;BME280;22716;51.556;5.080;2023-03-13T05:05:07;99078.56;;;12.44;100.00
36748;BME280;22716;51.556;5.080;2023-03-13T05:07:36;99086.47;;;12.42;100.00
36748;BME280;22716;51.556;5.080;2023-03-13T05:10:06;99073.44;;;12.41;100.00
36748;BME280;22716;51.556;5.080;2023-03-13T05:12:37;99085.34;;;12.48;100.00
36748;BME280;22716;51.556;5.080;2023-03-13T05:15:08;99061.78;;;12.46;100.00
36748;BME280;22716;51.556;5.080;2023-03-13T05:17:36;99072.31;;;12.46;100.00
36748;BME280;22716;51.556;5.080;2023-03-13T05:20:07;99082.81;;;12.46;100.00
36748;BME280;22716;51.556;5.080;2023-03-13T05:22:36;99069.81;;;12.43;100.00
36748;BME280;22716;51.556;5.080;2023-03-13T05:25:06;99079.31;;;12.46;100.00
36748;BME280;22716;51.556;5.080;2023-03-13T05:27:37;99072.31;;;12.46;100.00
36748;BME280;22716;51.556;5.080;2023-03-13T05:30:09;99061.16;;;12.41;100.00
36748;BME280;22716;51.556;5.080;2023-03-13T05:32:37;99062.66;;;12.47;100.00
36748;BME280;22716;51.556;5.080;2023-03-13T05:35:07;99079.13;;;12.50;100.00
36748;BME280;22716;51.556;5.080;2023-03-13T05:37:36;99078.28;;;12.50;100.00
36748;BME280;22716;51.556;5.080;2023-03-13T05:40:06;99073.75;;;12.53;100.00
36748;BME280;22716;51.556;5.080;2023-03-13T05:42:38;99065.19;;;12.48;100.00
36748;BME280;22716;51.556;5.080;2023-03-13T05:45:09;99071.88;;;12.55;100.00
36748;BME280;22716;51.556;5.080;2023-03-13T05:47:38;99076.22;;;12.56;100.00
36748;BME280;22716;51.556;5.080;2023-03-13T05:50:09;99046.66;;;12.51;100.00
36748;BME280;22716;51.556;5.080;2023-03-13T05:52:38;99073.47;;;12.59;100.00
36748;BME280;22716;51.556;5.080;2023-03-13T05:55:08;99063.91;;;12.57;100.00
36748;BME280;22716;51.556;5.080;2023-03-13T05:57:39;99067.25;;;12.60;100.00
36748;BME280;22716;51.556;5.080;2023-03-13T06:00:12;99064.63;;;12.60;100.00
36748;BME280;22716;51.556;5.080;2023-03-13T06:02:41;99090.00;;;12.61;100.00
36748;BME280;22716;51.556;5.080;2023-03-13T06:05:10;99068.13;;;12.61;100.00
36748;BME280;22716;51.556;5.080;2023-03-13T06:07:40;99064.47;;;12.63;100.00
36748;BME280;22716;51.556;5.080;2023-03-13T06:10:10;99057.47;;;12.64;100.00
36748;BME280;22716;51.556;5.080;2023-03-13T06:12:42;99060.16;;;12.62;100.00
36748;BME280;22716;51.556;5.080;2023-03-13T06:15:11;99048.66;;;12.65;100.00
36748;BME280;22716;51.556;5.080;2023-03-13T06:17:39;99063.50;;;12.66;100.00
36748;BME280;22716;51.556;5.080;2023-03-13T06:20:10;99059.94;;;12.67;100.00
36748;BME280;22716;51.556;5.080;2023-03-13T06:22:39;99067.75;;;12.68;100.00
36748;BME280;22716;51.556;5.080;2023-03-13T06:25:09;99058.03;;;12.70;100.00
36748;BME280;22716;51.556;5.080;2023-03-13T06:27:38;99061.53;;;12.71;100.00
36748;BME280;22716;51.556;5.080;2023-03-13T06:30:12;99060.44;;;12.75;100.00
36748;BME280;22716;51.556;5.080;2023-03-13T06:32:40;99057.81;;;12.75;100.00
36748;BME280;22716;51.556;5.080;2023-03-13T06:35:09;99057.81;;;12.75;100.00
36748;BME280;22716;51.556;5.080;2023-03-13T06:37:38;99052.41;;;12.78;100.00
36748;BME280;22716;51.556;5.080;2023-03-13T06:40:08;99058.50;;;12.78;100.00
36748;BME280;22716;51.556;5.080;2023-03-13T06:42:37;99034.88;;;12.78;100.00
36748;BME280;22716;51.556;5.080;2023-03-13T06:45:08;99049.56;;;12.82;100.00
36748;BME280;22716;51.556;5.080;2023-03-13T06:47:40;99058.13;;;12.86;100.00
36748;BME280;22716;51.556;5.080;2023-03-13T06:50:10;99056.38;;;12.86;100.00
36748;BME280;22716;51.556;5.080;2023-03-13T06:52:39;99058.09;;;12.87;100.00
36748;BME280;22716;51.556;5.080;2023-03-13T06:55:09;99057.31;;;12.85;100.00
36748;BME280;22716;51.556;5.080;2023-03-13T06:57:38;99044.22;;;12.84;100.00
36748;BME280;22716;51.556;5.080;2023-03-13T07:00:10;99050.09;;;12.89;100.00
36748;BME280;22716;51.556;5.080;2023-03-13T07:02:41;99051.91;;;12.88;100.00
36748;BME280;22716;51.556;5.080;2023-03-13T07:05:10;99037.75;;;12.91;100.00
36748;BME280;22716;51.556;5.080;2023-03-13T07:07:39;99030.78;;;12.90;100.00
36748;BME280;22716;51.556;5.080;2023-03-13T07:10:09;99033.19;;;12.94;100.00
36748;BME280;22716;51.556;5.080;2023-03-13T07:12:38;99024.47;;;12.94;100.00
36748;BME280;22716;51.556;5.080;2023-03-13T07:15:09;99040.16;;;12.96;100.00
36748;BME280;22716;51.556;5.080;2023-03-13T07:17:41;99038.63;;;12.91;100.00
36748;BME280;22716;51.556;5.080;2023-03-13T07:20:11;99039.31;;;12.95;100.00
36748;BME280;22716;51.556;5.080;2023-03-13T07:22:40;99047.28;;;12.93;100.00
36748;BME280;22716;51.556;5.080;2023-03-13T07:25:09;99046.31;;;12.94;100.00
36748;BME280;22716;51.556;5.080;2023-03-13T07:27:38;99058.78;;;12.91;100.00
36748;BME280;22716;51.556;5.080;2023-03-13T07:30:08;99048.28;;;12.91;100.00
36748;BME280;22716;51.556;5.080;2023-03-13T07:32:37;99053.38;;;12.94;100.00
36748;BME280;22716;51.556;5.080;2023-03-13T07:35:09;99045.72;;;12.89;100.00
36748;BME280;22716;51.556;5.080;2023-03-13T07:37:37;99056.94;;;12.93;100.00
36748;BME280;22716;51.556;5.080;2023-03-13T07:40:08;99052.72;;;12.89;100.00
36748;BME280;22716;51.556;5.080;2023-03-13T07:42:39;99051.09;;;12.86;100.00
36748;BME280;22716;51.556;5.080;2023-03-13T07:45:09;99057.16;;;12.88;100.00
36748;BME280;22716;51.556;5.080;2023-03-13T07:47:38;99051.25;;;12.83;100.00
36748;BME280;22716;51.556;5.080;2023-03-13T07:50:10;99055.50;;;12.86;100.00
36748;BME280;22716;51.556;5.080;2023-03-13T07:52:39;99051.25;;;12.83;100.00
36748;BME280;22716;51.556;5.080;2023-03-13T07:55:08;99046.00;;;12.83;100.00
36748;BME280;22716;51.556;5.080;2023-03-13T07:57:37;99038.19;;;12.82;100.00
36748;BME280;22716;51.556;5.080;2023-03-13T08:00:07;99048.47;;;12.86;100.00
36748;BME280;22716;51.556;5.080;2023-03-13T08:02:41;99044.16;;;12.85;100.00
36748;BME280;22716;51.556;5.080;2023-03-13T08:05:12;99045.72;;;12.89;100.00
36748;BME280;22716;51.556;5.080;2023-03-13T08:07:43;99048.34;;;12.89;100.00
36748;BME280;22716;51.556;5.080;2023-03-13T08:10:12;99042.16;;;12.90;100.00
36748;BME280;22716;51.556;5.080;2023-03-13T08:12:40;99042.78;;;12.96;100.00
36748;BME280;22716;51.556;5.080;2023-03-13T08:15:09;99046.19;;;12.98;100.00
36748;BME280;22716;51.556;5.080;2023-03-13T08:17:38;99055.72;;;13.00;100.00
36748;BME280;22716;51.556;5.080;2023-03-13T08:20:09;99034.91;;;12.96;100.00
36748;BME280;22716;51.556;5.080;2023-03-13T08:22:40;99053.25;;;12.97;100.00
36748;BME280;22716;51.556;5.080;2023-03-13T08:25:11;99059.31;;;12.98;100.00
36748;BME280;22716;51.556;5.080;2023-03-13T08:27:40;99054.91;;;12.98;100.00
36748;BME280;22716;51.556;5.080;2023-03-13T08:30:10;99044.34;;;13.00;100.00
36748;BME280;22716;51.556;5.080;2023-03-13T08:32:39;99050.66;;;12.96;100.00
36748;BME280;22716;51.556;5.080;2023-03-13T08:35:09;99058.66;;;12.94;100.00
36748;BME280;22716;51.556;5.080;2023-03-13T08:37:40;99062.19;;;12.93;100.00
36748;BME280;22716;51.556;5.080;2023-03-13T08:40:10;99057.50;;;13.00;100.00
36748;BME280;22716;51.556;5.080;2023-03-13T08:42:39;99037.31;;;13.00;100.00
36748;BME280;22716;51.556;5.080;2023-03-13T08:45:09;99034.69;;;13.00;100.00
36748;BME280;22716;51.556;5.080;2023-03-13T08:47:38;99021.31;;;13.05;100.00
36748;BME280;22716;51.556;5.080;2023-03-13T08:50:09;99028.94;;;13.11;100.00
36748;BME280;22716;51.556;5.080;2023-03-13T08:52:43;99002.00;;;13.06;100.00
36748;BME280;22716;51.556;5.080;2023-03-13T08:55:11;99003.34;;;13.14;100.00
36748;BME280;22716;51.556;5.080;2023-03-13T08:57:40;99021.75;;;13.31;100.00
36748;BME280;22716;51.556;5.080;2023-03-13T09:00:11;99004.50;;;13.43;100.00
36748;BME280;22716;51.556;5.080;2023-03-13T09:02:41;98988.16;;;13.36;100.00
36748;BME280;22716;51.556;5.080;2023-03-13T09:05:09;98997.59;;;13.58;100.00
36748;BME280;22716;51.556;5.080;2023-03-13T09:07:41;98985.00;;;13.64;100.00
36748;BME280;22716;51.556;5.080;2023-03-13T09:10:10;98988.34;;;13.83;100.00
36748;BME280;22716;51.556;5.080;2023-03-13T09:12:39;98999.09;;;13.96;100.00
36748;BME280;22716;51.556;5.080;2023-03-13T09:15:09;98975.59;;;14.09;100.00
36748;BME280;22716;51.556;5.080;2023-03-13T09:17:38;98979.16;;;14.08;100.00
36748;BME280;22716;51.556;5.080;2023-03-13T09:20:09;98984.34;;;14.25;100.00
36748;BME280;22716;51.556;5.080;2023-03-13T09:22:38;98979.59;;;14.31;100.00
36748;BME280;22716;51.556;5.080;2023-03-13T09:25:09;98985.41;;;14.38;100.00
36748;BME280;22716;51.556;5.080;2023-03-13T09:27:39;98985.84;;;14.46;100.00
36748;BME280;22716;51.556;5.080;2023-03-13T09:30:09;98966.38;;;14.48;100.00
36748;BME280;22716;51.556;5.080;2023-03-13T09:32:38;98974.28;;;14.64;100.00
36748;BME280;22716;51.556;5.080;2023-03-13T09:35:08;98972.13;;;14.71;100.00
36748;BME280;22716;51.556;5.080;2023-03-13T09:37:37;98959.97;;;14.68;100.00
36748;BME280;22716;51.556;5.080;2023-03-13T09:40:12;98961.41;;;14.74;100.00
36748;BME280;22716;51.556;5.080;2023-03-13T09:42:46;98951.53;;;14.77;100.00
36748;BME280;22716;51.556;5.080;2023-03-13T09:45:18;98933.59;;;14.68;100.00
36748;BME280;22716;51.556;5.080;2023-03-13T09:47:55;98950.50;;;14.80;100.00
36748;BME280;22716;51.556;5.080;2023-03-13T09:50:28;98952.56;;;14.75;100.00
36748;BME280;22716;51.556;5.080;2023-03-13T09:53:02;98944.75;;;14.73;100.00
36748;BME280;22716;51.556;5.080;2023-03-13T09:55:35;98930.97;;;14.68;100.00
36748;BME280;22716;51.556;5.080;2023-03-13T09:58:11;98943.34;;;14.68;100.00
36748;BME280;22716;51.556;5.080;2023-03-13T10:00:45;98942.38;;;14.69;100.00
36748;BME280;22716;51.556;5.080;2023-03-13T10:03:20;98957.66;;;14.78;100.00
36748;BME280;22716;51.556;5.080;2023-03-13T10:05:53;98940.66;;;14.83;100.00
36748;BME280;22716;51.556;5.080;2023-03-13T10:08:24;98931.72;;;14.86;100.00
36748;BME280;22716;51.556;5.080;2023-03-13T10:11:00;98916.00;;;14.84;100.00
36748;BME280;22716;51.556;5.080;2023-03-13T10:13:35;98932.78;;;14.97;100.00
36748;BME280;22716;51.556;5.080;2023-03-13T10:16:08;98940.78;;;14.96;100.00
36748;BME280;22716;51.556;5.080;2023-03-13T10:18:37;98928.47;;;14.96;100.00
36748;BME280;22716;51.556;5.080;2023-03-13T10:21:15;98940.44;;;15.02;100.00
36748;BME280;22716;51.556;5.080;2023-03-13T10:23:50;98923.75;;;15.01;100.00
36748;BME280;22716;51.556;5.080;2023-03-13T10:26:26;98926.97;;;15.06;100.00
36748;BME280;22716;51.556;5.080;2023-03-13T10:29:12;98929.06;;;15.15;100.00
36748;BME280;22716;51.556;5.080;2023-03-13T10:31:47;98913.91;;;15.19;100.00
36748;BME280;22716;51.556;5.080;2023-03-13T10:34:18;98918.16;;;15.22;100.00
36748;BME280;22716;51.556;5.080;2023-03-13T10:36:48;98909.56;;;15.18;100.00
36748;BME280;22716;51.556;5.080;2023-03-13T10:39:20;98914.66;;;15.21;100.00
36748;BME280;22716;51.556;5.080;2023-03-13T10:41:56;98909.13;;;15.26;100.00
36748;BME280;22716;51.556;5.080;2023-03-13T10:44:31;98912.44;;;15.29;100.00
36748;BME280;22716;51.556;5.080;2023-03-13T10:47:01;98905.34;;;15.30;100.00
36748;BME280;22716;51.556;5.080;2023-03-13T10:49:31;98900.34;;;15.25;100.00
36748;BME280;22716;51.556;5.080;2023-03-13T10:52:03;98906.19;;;15.30;100.00
36748;BME280;22716;51.556;5.080;2023-03-13T10:54:33;98903.84;;;15.26;100.00
36748;BME280;22716;51.556;5.080;2023-03-13T10:57:28;98907.25;;;15.28;100.00
36748;BME280;22716;51.556;5.080;2023-03-13T10:59:58;98894.78;;;15.30;100.00
36748;BME280;22716;51.556;5.080;2023-03-13T11:02:33;98904.34;;;15.32;100.00
36748;BME280;22716;51.556;5.080;2023-03-13T11:05:31;98908.59;;;15.35;100.00
36748;BME280;22716;51.556;5.080;2023-03-13T11:08:12;98898.78;;;15.37;100.00
36748;BME280;22716;51.556;5.080;2023-03-13T11:10:57;98880.88;;;15.42;100.00
36748;BME280;22716;51.556;5.080;2023-03-13T11:13:33;98892.78;;;15.49;100.00
36748;BME280;22716;51.556;5.080;2023-03-13T11:16:16;98889.22;;;15.50;100.00
36748;BME280;22716;51.556;5.080;2023-03-13T11:19:07;98871.19;;;15.56;100.00
36748;BME280;22716;51.556;5.080;2023-03-13T11:21:48;98883.09;;;15.63;100.00
36748;BME280;22716;51.556;5.080;2023-03-13T11:24:26;98885.16;;;15.73;100.00
36748;BME280;22716;51.556;5.080;2023-03-13T11:27:02;98859.69;;;15.72;100.00
36748;BME280;22716;51.556;5.080;2023-03-13T11:29:44;98871.00;;;15.88;100.00
36748;BME280;22716;51.556;5.080;2023-03-13T11:32:22;98857.50;;;15.92;100.00
36748;BME280;22716;51.556;5.080;2023-03-13T11:34:55;98854.66;;;15.95;100.00
36748;BME280;22716;51.556;5.080;2023-03-13T11:37:26;98851.84;;;15.84;100.00
36748;BME280;22716;51.556;5.080;2023-03-13T11:40:03;98846.38;;;15.87;100.00
36748;BME280;22716;51.556;5.080;2023-03-13T11:45:54;98853.91;;;15.93;96.83
36748;BME280;22716;51.556;5.080;2023-03-13T11:51:29;98836.56;;;15.89;98.31
36748;BME280;22716;51.556;5.080;2023-03-13T11:54:20;98843.31;;;16.07;98.42
36748;BME280;22716;51.556;5.080;2023-03-13T11:56:55;98825.94;;;16.03;99.32
36748;BME280;22716;51.556;5.080;2023-03-13T11:59:33;98833.09;;;16.15;99.79
36748;BME280;22716;51.556;5.080;2023-03-13T12:02:17;98830.50;;;16.28;100.00
36748;BME280;22716;51.556;5.080;2023-03-13T12:04:53;98803.63;;;16.21;100.00
36748;BME280;22716;51.556;5.080;2023-03-13T12:07:26;98813.41;;;16.34;100.00
36748;BME280;22716;51.556;5.080;2023-03-13T12:10:01;98809.63;;;16.38;100.00
36748;BME280;22716;51.556;5.080;2023-03-13T12:12:36;98799.78;;;16.40;100.00
36748;BME280;22716;51.556;5.080;2023-03-13T12:15:17;98808.78;;;16.37;100.00
36748;BME280;22716;51.556;5.080;2023-03-13T12:17:52;98795.63;;;16.36;100.00
36748;BME280;22716;51.556;5.080;2023-03-13T12:20:25;98797.75;;;16.31;100.00
36748;BME280;22716;51.556;5.080;2023-03-13T12:23:03;98797.94;;;16.27;100.00
36748;BME280;22716;51.556;5.080;2023-03-13T12:25:41;98788.31;;;16.26;100.00
36748;BME280;22716;51.556;5.080;2023-03-13T12:28:22;98784.41;;;16.32;100.00
36748;BME280;22716;51.556;5.080;2023-03-13T12:31:00;98797.34;;;16.37;100.00
36748;BME280;22716;51.556;5.080;2023-03-13T12:33:35;98774.22;;;16.40;100.00
36748;BME280;22716;51.556;5.080;2023-03-13T12:36:11;98748.28;;;16.33;96.09
36748;BME280;22716;51.556;5.080;2023-03-13T12:38:47;98772.63;;;16.50;94.42
36748;BME280;22716;51.556;5.080;2023-03-13T12:41:20;98764.44;;;16.55;92.35
36748;BME280;22716;51.556;5.080;2023-03-13T12:43:53;98757.97;;;16.59;90.38
36748;BME280;22716;51.556;5.080;2023-03-13T12:46:35;98764.44;;;16.67;86.31
36748;BME280;22716;51.556;5.080;2023-03-13T12:52:28;98756.00;;;16.88;82.42
36748;BME280;22716;51.556;5.080;2023-03-13T12:58:24;98747.75;;;16.92;81.69
36748;BME280;22716;51.556;5.080;2023-03-13T13:00:54;98766.19;;;16.94;80.50
36748;BME280;22716;51.556;5.080;2023-03-13T13:03:29;98745.22;;;16.91;79.04
36748;BME280;22716;51.556;5.080;2023-03-13T13:06:06;98762.25;;;16.99;78.96
36748;BME280;22716;51.556;5.080;2023-03-13T13:08:40;98717.72;;;16.93;78.67
36748;BME280;22716;51.556;5.080;2023-03-13T13:11:39;98735.03;;;17.10;78.43
36748;BME280;22716;51.556;5.080;2023-03-13T13:17:30;98725.00;;;17.02;79.21
36748;BME280;22716;51.556;5.080;2023-03-13T13:20:25;98718.63;;;17.17;78.32
36748;BME280;22716;51.556;5.080;2023-03-13T13:22:55;98738.84;;;17.18;78.45
36748;BME280;22716;51.556;5.080;2023-03-13T13:25:30;98733.03;;;17.26;78.63
36748;BME280;22716;51.556;5.080;2023-03-13T13:34:07;98734.28;;;17.20;79.30
36748;BME280;22716;51.556;5.080;2023-03-13T13:36:57;98729.19;;;17.17;79.32
36748;BME280;22716;51.556;5.080;2023-03-13T13:39:36;98733.94;;;17.38;79.48